KMIA

Miami

Airport
ICAO code
KMIA
Summary
ICAO Region
NAM
ICAO Territory
Location

Miami, Florida,

Coordinates
25° 47' 41" N , 80° 17' 23" W
KCC
Metar
Observation
KMIA 280753Z 00000KT 10SM FEW250 24/23 A3000 RMK AO2 SLP157 T02390228 $
Station
Miami, Miami International Airport
Date/Time
2022-11-28 07:53:00
Wind direction
Wind speed
00 kts
Lowest cloud amount
few clouds
Temperature
23.9°C
Dew point
22.8°C
Humidity
93%
Weather condition
n/a

Description

International airport serving the city of Miami and southeast Florida, USA.

Climatology

Tropical Monsoon climate (Köppen climate classification Am) - monthly mean temperatures above 18°C in every month of the year and features wet and dry seasons. A tropical monsoon climate typically features less pronounced dry seasons than a tropical savanna climate and see less variance in temperatures during the course of the year. The driest month nearly always occurs at or soon after the "winter" solstice.

Runways

Designator Length Width Surface Rops
08L/26R 2621 46 ASP Yes/Yes
12/30 2851 46 ASP Yes/Yes
08R/26L 3202 61 ASP Yes/Yes
9/27 3962 46 ASP Yes/Yes

Airport map

Aerial View

SKYbrary Partners:

Safety knowledge contributed by: